sensor_id;sensor_type;location;lat;lon;timestamp;pressure;altitude;pressure_sealevel;temperature;humidity
72124;BME280;59998;37.126;-8.538;2022-08-16T00:01:02;101023.5;;;21.7;61.2
72124;BME280;59998;37.126;-8.538;2022-08-16T00:05:48;101009.8;;;21.6;61.5
72124;BME280;59998;37.126;-8.538;2022-08-16T00:10:35;101016.7;;;21.5;62.1
72124;BME280;59998;37.126;-8.538;2022-08-16T00:15:26;101012.7;;;21.4;62.7
72124;BME280;59998;37.126;-8.538;2022-08-16T00:20:14;101011.9;;;21.4;63.1
72124;BME280;59998;37.126;-8.538;2022-08-16T00:25:00;101007.2;;;21.4;63.4
72124;BME280;59998;37.126;-8.538;2022-08-16T00:29:46;101008.0;;;21.4;63.4
72124;BME280;59998;37.126;-8.538;2022-08-16T00:34:32;100999.4;;;21.5;63.2
72124;BME280;59998;37.126;-8.538;2022-08-16T00:39:20;101010.0;;;21.5;63.3
72124;BME280;59998;37.126;-8.538;2022-08-16T00:44:06;101000.3;;;21.6;62.8
72124;BME280;59998;37.126;-8.538;2022-08-16T00:48:53;101003.1;;;21.6;61.8
72124;BME280;59998;37.126;-8.538;2022-08-16T00:53:40;100995.0;;;21.7;61.8
72124;BME280;59998;37.126;-8.538;2022-08-16T00:58:28;100988.0;;;21.7;61.7
72124;BME280;59998;37.126;-8.538;2022-08-16T01:03:17;100989.1;;;21.7;61.8
72124;BME280;59998;37.126;-8.538;2022-08-16T01:08:05;100987.5;;;21.6;62.3
72124;BME280;59998;37.126;-8.538;2022-08-16T01:12:52;100983.5;;;21.5;62.6
72124;BME280;59998;37.126;-8.538;2022-08-16T01:17:40;100987.1;;;21.5;62.8
72124;BME280;59998;37.126;-8.538;2022-08-16T01:22:33;100967.1;;;21.5;63.0
72124;BME280;59998;37.126;-8.538;2022-08-16T01:27:26;100969.9;;;21.5;63.0
72124;BME280;59998;37.126;-8.538;2022-08-16T01:32:13;100964.5;;;21.6;62.8
72124;BME280;59998;37.126;-8.538;2022-08-16T01:37:02;100957.8;;;21.6;62.8
72124;BME280;59998;37.126;-8.538;2022-08-16T01:41:49;100965.3;;;21.6;62.8
72124;BME280;59998;37.126;-8.538;2022-08-16T01:46:37;100960.9;;;21.6;62.9
72124;BME280;59998;37.126;-8.538;2022-08-16T01:51:27;100961.3;;;21.6;62.2
72124;BME280;59998;37.126;-8.538;2022-08-16T01:56:14;100969.9;;;21.5;62.2
72124;BME280;59998;37.126;-8.538;2022-08-16T02:01:00;100981.9;;;21.5;61.8
72124;BME280;59998;37.126;-8.538;2022-08-16T02:05:49;100964.6;;;21.4;61.6
72124;BME280;59998;37.126;-8.538;2022-08-16T02:10:36;100959.5;;;21.3;61.9
72124;BME280;59998;37.126;-8.538;2022-08-16T02:15:25;100952.3;;;21.2;63.1
72124;BME280;59998;37.126;-8.538;2022-08-16T02:20:12;100961.6;;;21.2;63.1
72124;BME280;59998;37.126;-8.538;2022-08-16T02:25:04;100967.1;;;21.2;63.5
72124;BME280;59998;37.126;-8.538;2022-08-16T02:29:51;100955.1;;;21.2;63.5
72124;BME280;59998;37.126;-8.538;2022-08-16T02:34:38;100960.2;;;21.2;63.5
72124;BME280;59998;37.126;-8.538;2022-08-16T02:39:24;100949.2;;;21.3;63.1
72124;BME280;59998;37.126;-8.538;2022-08-16T02:44:12;100959.4;;;21.2;63.2
72124;BME280;59998;37.126;-8.538;2022-08-16T02:48:59;100948.8;;;21.2;64.0
72124;BME280;59998;37.126;-8.538;2022-08-16T02:53:46;100952.7;;;21.2;63.7
72124;BME280;59998;37.126;-8.538;2022-08-16T02:58:33;100951.8;;;21.1;63.8
72124;BME280;59998;37.126;-8.538;2022-08-16T03:03:22;100941.4;;;21.2;63.8
72124;BME280;59998;37.126;-8.538;2022-08-16T03:08:08;100941.8;;;21.2;63.7
72124;BME280;59998;37.126;-8.538;2022-08-16T03:12:54;100948.9;;;21.3;63.3
72124;BME280;59998;37.126;-8.538;2022-08-16T03:17:42;100952.0;;;21.2;63.5
72124;BME280;59998;37.126;-8.538;2022-08-16T03:22:28;100945.2;;;21.2;63.4
72124;BME280;59998;37.126;-8.538;2022-08-16T03:27:14;100950.7;;;21.1;63.3
72124;BME280;59998;37.126;-8.538;2022-08-16T03:32:01;100947.6;;;21.2;63.0
72124;BME280;59998;37.126;-8.538;2022-08-16T03:36:47;100950.0;;;21.2;62.9
72124;BME280;59998;37.126;-8.538;2022-08-16T03:41:34;100960.9;;;21.2;62.3
72124;BME280;59998;37.126;-8.538;2022-08-16T03:46:20;100964.0;;;21.2;62.6
72124;BME280;59998;37.126;-8.538;2022-08-16T03:51:10;100964.1;;;21.3;62.6
72124;BME280;59998;37.126;-8.538;2022-08-16T03:55:59;100964.5;;;21.2;62.3
72124;BME280;59998;37.126;-8.538;2022-08-16T04:00:45;100964.5;;;21.2;62.4
72124;BME280;59998;37.126;-8.538;2022-08-16T04:05:32;100962.9;;;21.3;62.6
72124;BME280;59998;37.126;-8.538;2022-08-16T04:10:19;100951.9;;;21.2;62.6
72124;BME280;59998;37.126;-8.538;2022-08-16T04:19:53;100955.7;;;21.1;63.1
72124;BME280;59998;37.126;-8.538;2022-08-16T04:24:43;100964.2;;;21.1;63.2
72124;BME280;59998;37.126;-8.538;2022-08-16T04:29:29;100959.5;;;21.0;63.7
72124;BME280;59998;37.126;-8.538;2022-08-16T04:34:16;100961.7;;;21.0;64.5
72124;BME280;59998;37.126;-8.538;2022-08-16T04:39:05;100968.6;;;20.8;64.5
72124;BME280;59998;37.126;-8.538;2022-08-16T04:43:51;100973.5;;;20.7;65.1
72124;BME280;59998;37.126;-8.538;2022-08-16T04:48:37;100968.0;;;20.7;65.2
72124;BME280;59998;37.126;-8.538;2022-08-16T04:53:24;100962.6;;;20.7;65.0
72124;BME280;59998;37.126;-8.538;2022-08-16T04:58:10;100963.8;;;20.8;64.8
72124;BME280;59998;37.126;-8.538;2022-08-16T05:02:56;100966.5;;;20.8;64.5
72124;BME280;59998;37.126;-8.538;2022-08-16T05:07:42;100977.4;;;20.7;64.5
72124;BME280;59998;37.126;-8.538;2022-08-16T05:12:28;100968.4;;;20.7;64.9
72124;BME280;59998;37.126;-8.538;2022-08-16T05:17:15;100976.3;;;20.8;64.6
72124;BME280;59998;37.126;-8.538;2022-08-16T05:22:01;100979.5;;;20.8;64.6
72124;BME280;59998;37.126;-8.538;2022-08-16T05:26:48;100985.2;;;20.7;65.0
72124;BME280;59998;37.126;-8.538;2022-08-16T05:31:34;100987.0;;;20.6;64.9
72124;BME280;59998;37.126;-8.538;2022-08-16T05:36:21;100986.8;;;20.5;65.4
72124;BME280;59998;37.126;-8.538;2022-08-16T05:41:09;100990.1;;;20.3;65.9
72124;BME280;59998;37.126;-8.538;2022-08-16T05:45:58;101003.1;;;20.4;65.7
72124;BME280;59998;37.126;-8.538;2022-08-16T05:50:44;101007.3;;;20.4;65.7
72124;BME280;59998;37.126;-8.538;2022-08-16T05:55:31;101013.6;;;20.4;66.1
72124;BME280;59998;37.126;-8.538;2022-08-16T06:00:20;101013.2;;;20.4;65.9
72124;BME280;59998;37.126;-8.538;2022-08-16T06:05:07;101017.5;;;20.4;66.1
72124;BME280;59998;37.126;-8.538;2022-08-16T06:09:54;101014.0;;;20.4;66.0
72124;BME280;59998;37.126;-8.538;2022-08-16T06:14:40;101030.3;;;20.3;66.0
72124;BME280;59998;37.126;-8.538;2022-08-16T06:19:27;101031.4;;;20.3;66.1
72124;BME280;59998;37.126;-8.538;2022-08-16T06:24:14;101036.4;;;20.3;66.2
72124;BME280;59998;37.126;-8.538;2022-08-16T06:29:01;101040.8;;;20.4;66.0
72124;BME280;59998;37.126;-8.538;2022-08-16T06:33:47;101043.3;;;20.4;65.9
72124;BME280;59998;37.126;-8.538;2022-08-16T06:38:33;101041.5;;;20.5;65.5
72124;BME280;59998;37.126;-8.538;2022-08-16T06:43:20;101046.6;;;20.6;65.3
72124;BME280;59998;37.126;-8.538;2022-08-16T06:48:07;101055.8;;;20.7;65.1
72124;BME280;59998;37.126;-8.538;2022-08-16T06:52:54;101054.4;;;20.8;64.6
72124;BME280;59998;37.126;-8.538;2022-08-16T06:57:41;101050.4;;;20.8;64.6
72124;BME280;59998;37.126;-8.538;2022-08-16T07:02:27;101073.1;;;20.8;64.4
72124;BME280;59998;37.126;-8.538;2022-08-16T07:07:13;101068.1;;;20.8;64.3
72124;BME280;59998;37.126;-8.538;2022-08-16T07:12:00;101072.7;;;20.8;64.1
72124;BME280;59998;37.126;-8.538;2022-08-16T07:16:46;101078.0;;;20.9;64.2
72124;BME280;59998;37.126;-8.538;2022-08-16T07:21:35;101079.0;;;21.1;63.7
72124;BME280;59998;37.126;-8.538;2022-08-16T07:26:24;101076.5;;;21.2;63.1
72124;BME280;59998;37.126;-8.538;2022-08-16T07:31:11;101079.4;;;21.4;63.0
72124;BME280;59998;37.126;-8.538;2022-08-16T07:35:58;101087.7;;;21.4;62.6
72124;BME280;59998;37.126;-8.538;2022-08-16T07:40:45;101090.5;;;21.5;62.1
72124;BME280;59998;37.126;-8.538;2022-08-16T07:45:31;101088.7;;;21.6;62.1
72124;BME280;59998;37.126;-8.538;2022-08-16T07:50:19;101093.0;;;21.7;62.3
72124;BME280;59998;37.126;-8.538;2022-08-16T07:55:07;101098.9;;;21.7;62.2
72124;BME280;59998;37.126;-8.538;2022-08-16T07:59:54;101096.9;;;21.6;62.3
72124;BME280;59998;37.126;-8.538;2022-08-16T08:04:40;101098.6;;;21.7;62.6
72124;BME280;59998;37.126;-8.538;2022-08-16T08:09:26;101091.7;;;21.8;62.3
72124;BME280;59998;37.126;-8.538;2022-08-16T08:14:13;101088.2;;;21.9;61.8
72124;BME280;59998;37.126;-8.538;2022-08-16T08:18:59;101083.3;;;22.0;61.0
72124;BME280;59998;37.126;-8.538;2022-08-16T08:23:46;101090.4;;;22.1;61.2
72124;BME280;59998;37.126;-8.538;2022-08-16T08:28:32;101088.9;;;22.2;60.0
72124;BME280;59998;37.126;-8.538;2022-08-16T08:33:19;101089.0;;;22.3;59.9
72124;BME280;59998;37.126;-8.538;2022-08-16T08:38:06;101097.7;;;22.4;59.1
72124;BME280;59998;37.126;-8.538;2022-08-16T08:42:53;101097.4;;;22.4;58.8
72124;BME280;59998;37.126;-8.538;2022-08-16T08:47:39;101098.2;;;22.5;58.7
72124;BME280;59998;37.126;-8.538;2022-08-16T08:52:26;101110.7;;;22.5;58.8
72124;BME280;59998;37.126;-8.538;2022-08-16T08:57:14;101104.5;;;22.6;57.4
72124;BME280;59998;37.126;-8.538;2022-08-16T09:02:03;101104.6;;;22.7;57.0
72124;BME280;59998;37.126;-8.538;2022-08-16T09:06:49;101103.9;;;22.8;56.9
72124;BME280;59998;37.126;-8.538;2022-08-16T09:11:36;101104.8;;;22.8;56.9
72124;BME280;59998;37.126;-8.538;2022-08-16T09:16:25;101105.6;;;22.9;56.4
72124;BME280;59998;37.126;-8.538;2022-08-16T09:21:12;101111.9;;;23.0;56.9
72124;BME280;59998;37.126;-8.538;2022-08-16T09:25:58;101116.3;;;23.1;56.7
72124;BME280;59998;37.126;-8.538;2022-08-16T09:30:47;101110.0;;;23.1;56.4
72124;BME280;59998;37.126;-8.538;2022-08-16T09:35:34;101110.8;;;23.2;56.0
72124;BME280;59998;37.126;-8.538;2022-08-16T09:40:20;101118.7;;;23.2;56.4
72124;BME280;59998;37.126;-8.538;2022-08-16T09:45:07;101115.3;;;23.4;55.9
72124;BME280;59998;37.126;-8.538;2022-08-16T09:49:53;101118.5;;;23.6;55.7
72124;BME280;59998;37.126;-8.538;2022-08-16T09:54:40;101130.9;;;23.3;56.8
72124;BME280;59998;37.126;-8.538;2022-08-16T09:59:26;101130.2;;;22.9;58.6
72124;BME280;59998;37.126;-8.538;2022-08-16T10:04:16;101126.1;;;22.6;59.2
72124;BME280;59998;37.126;-8.538;2022-08-16T10:09:03;101132.5;;;22.8;58.6
72124;BME280;59998;37.126;-8.538;2022-08-16T10:13:50;101142.8;;;22.9;59.5
72124;BME280;59998;37.126;-8.538;2022-08-16T10:18:36;101150.1;;;22.8;59.4
72124;BME280;59998;37.126;-8.538;2022-08-16T10:23:23;101151.3;;;22.8;60.4
72124;BME280;59998;37.126;-8.538;2022-08-16T10:28:11;101153.1;;;22.6;61.2
72124;BME280;59998;37.126;-8.538;2022-08-16T10:32:58;101151.7;;;22.8;61.3
72124;BME280;59998;37.126;-8.538;2022-08-16T10:37:44;101152.9;;;22.9;60.6
72124;BME280;59998;37.126;-8.538;2022-08-16T10:42:31;101159.5;;;22.8;60.4
72124;BME280;59998;37.126;-8.538;2022-08-16T10:47:18;101154.9;;;22.9;59.8
72124;BME280;59998;37.126;-8.538;2022-08-16T10:52:05;101151.5;;;23.1;58.7
72124;BME280;59998;37.126;-8.538;2022-08-16T10:56:52;101165.0;;;23.4;57.2
72124;BME280;59998;37.126;-8.538;2022-08-16T11:01:38;101163.1;;;23.5;57.4
72124;BME280;59998;37.126;-8.538;2022-08-16T11:06:25;101167.5;;;23.6;57.0
72124;BME280;59998;37.126;-8.538;2022-08-16T11:11:12;101159.4;;;23.8;57.0
72124;BME280;59998;37.126;-8.538;2022-08-16T11:15:58;101154.8;;;24.0;56.4
72124;BME280;59998;37.126;-8.538;2022-08-16T11:20:45;101154.4;;;24.2;55.9
72124;BME280;59998;37.126;-8.538;2022-08-16T11:25:32;101141.5;;;24.2;55.2
72124;BME280;59998;37.126;-8.538;2022-08-16T11:30:18;101133.6;;;24.2;55.1
72124;BME280;59998;37.126;-8.538;2022-08-16T11:35:07;101132.5;;;24.5;54.6
72124;BME280;59998;37.126;-8.538;2022-08-16T11:39:54;101131.7;;;24.8;54.4
72124;BME280;59998;37.126;-8.538;2022-08-16T11:44:40;101127.4;;;24.4;55.2
72124;BME280;59998;37.126;-8.538;2022-08-16T11:49:26;101121.1;;;24.2;56.0
72124;BME280;59998;37.126;-8.538;2022-08-16T11:54:13;101119.5;;;24.2;56.5
72124;BME280;59998;37.126;-8.538;2022-08-16T11:59:00;101127.3;;;24.1;56.2
72124;BME280;59998;37.126;-8.538;2022-08-16T12:03:49;101119.1;;;24.2;56.7
72124;BME280;59998;37.126;-8.538;2022-08-16T12:08:35;101123.8;;;24.0;56.9
72124;BME280;59998;37.126;-8.538;2022-08-16T12:13:24;101113.2;;;24.1;57.2
72124;BME280;59998;37.126;-8.538;2022-08-16T12:18:13;101103.1;;;24.4;57.2
72124;BME280;59998;37.126;-8.538;2022-08-16T12:22:59;101104.6;;;24.7;56.1
72124;BME280;59998;37.126;-8.538;2022-08-16T12:27:47;101097.1;;;25.1;54.7
72124;BME280;59998;37.126;-8.538;2022-08-16T12:32:34;101098.2;;;25.3;54.3
72124;BME280;59998;37.126;-8.538;2022-08-16T12:37:21;101091.7;;;25.8;52.8
72124;BME280;59998;37.126;-8.538;2022-08-16T12:42:08;101097.4;;;26.2;51.1
72124;BME280;59998;37.126;-8.538;2022-08-16T12:46:54;101090.1;;;26.6;50.6
72124;BME280;59998;37.126;-8.538;2022-08-16T12:51:43;101087.7;;;26.6;50.0
72124;BME280;59998;37.126;-8.538;2022-08-16T12:56:32;101084.4;;;26.7;49.6
72124;BME280;59998;37.126;-8.538;2022-08-16T13:01:21;101078.7;;;26.9;49.4
72124;BME280;59998;37.126;-8.538;2022-08-16T13:06:08;101075.5;;;27.0;49.3
72124;BME280;59998;37.126;-8.538;2022-08-16T13:10:54;101064.5;;;27.3;49.8
72124;BME280;59998;37.126;-8.538;2022-08-16T13:15:41;101069.7;;;27.6;48.1
72124;BME280;59998;37.126;-8.538;2022-08-16T13:20:30;101061.8;;;27.6;47.2
72124;BME280;59998;37.126;-8.538;2022-08-16T13:25:18;101064.4;;;27.7;47.8
72124;BME280;59998;37.126;-8.538;2022-08-16T13:30:05;101060.6;;;27.6;48.9
72124;BME280;59998;37.126;-8.538;2022-08-16T13:34:52;101064.2;;;27.9;49.0
72124;BME280;59998;37.126;-8.538;2022-08-16T13:39:38;101063.9;;;27.8;47.9
72124;BME280;59998;37.126;-8.538;2022-08-16T13:44:27;101051.2;;;27.8;48.1
72124;BME280;59998;37.126;-8.538;2022-08-16T13:49:13;101048.3;;;27.6;48.7
72124;BME280;59998;37.126;-8.538;2022-08-16T13:54:02;101037.0;;;27.8;48.3
72124;BME280;59998;37.126;-8.538;2022-08-16T13:58:50;101031.5;;;28.0;47.8
72124;BME280;59998;37.126;-8.538;2022-08-16T14:03:37;101029.2;;;28.0;47.1
72124;BME280;59998;37.126;-8.538;2022-08-16T14:08:23;101021.1;;;27.9;47.2
72124;BME280;59998;37.126;-8.538;2022-08-16T14:13:09;101026.6;;;27.9;47.0
72124;BME280;59998;37.126;-8.538;2022-08-16T14:17:55;101021.4;;;28.0;46.5
72124;BME280;59998;37.126;-8.538;2022-08-16T14:22:42;101019.0;;;28.0;46.2
72124;BME280;59998;37.126;-8.538;2022-08-16T14:27:29;101020.8;;;28.1;45.8
72124;BME280;59998;37.126;-8.538;2022-08-16T14:32:18;101017.9;;;27.9;46.6
72124;BME280;59998;37.126;-8.538;2022-08-16T14:37:05;101011.0;;;28.0;45.3
72124;BME280;59998;37.126;-8.538;2022-08-16T14:41:51;101034.7;;;28.1;45.0
72124;BME280;59998;37.126;-8.538;2022-08-16T14:46:38;101025.6;;;28.0;44.6
72124;BME280;59998;37.126;-8.538;2022-08-16T14:51:24;101016.4;;;27.9;44.4
72124;BME280;59998;37.126;-8.538;2022-08-16T14:56:10;101001.6;;;28.0;44.0
72124;BME280;59998;37.126;-8.538;2022-08-16T15:00:56;101000.2;;;28.2;43.4
72124;BME280;59998;37.126;-8.538;2022-08-16T15:05:43;101002.4;;;28.0;43.4
72124;BME280;59998;37.126;-8.538;2022-08-16T15:10:32;101007.3;;;28.1;43.0
72124;BME280;59998;37.126;-8.538;2022-08-16T15:15:18;101004.0;;;28.2;42.6
72124;BME280;59998;37.126;-8.538;2022-08-16T15:20:06;101013.7;;;28.3;42.4
72124;BME280;59998;37.126;-8.538;2022-08-16T15:24:55;100998.8;;;28.2;41.7
72124;BME280;59998;37.126;-8.538;2022-08-16T15:29:42;101002.1;;;28.2;40.6
72124;BME280;59998;37.126;-8.538;2022-08-16T15:34:30;101004.5;;;28.1;41.2
72124;BME280;59998;37.126;-8.538;2022-08-16T15:39:17;101002.3;;;28.1;41.2
72124;BME280;59998;37.126;-8.538;2022-08-16T15:44:05;101017.3;;;28.0;41.9
72124;BME280;59998;37.126;-8.538;2022-08-16T15:48:52;100987.2;;;28.1;41.4
72124;BME280;59998;37.126;-8.538;2022-08-16T15:53:38;100995.5;;;28.1;42.0
72124;BME280;59998;37.126;-8.538;2022-08-16T15:58:24;100989.9;;;28.4;41.6
72124;BME280;59998;37.126;-8.538;2022-08-16T16:03:13;100985.6;;;28.4;40.9
72124;BME280;59998;37.126;-8.538;2022-08-16T16:08:00;100973.6;;;28.2;42.0
72124;BME280;59998;37.126;-8.538;2022-08-16T16:12:46;100985.2;;;28.1;41.1
72124;BME280;59998;37.126;-8.538;2022-08-16T16:17:36;100988.6;;;28.2;41.8
72124;BME280;59998;37.126;-8.538;2022-08-16T16:22:25;100981.4;;;28.3;42.1
72124;BME280;59998;37.126;-8.538;2022-08-16T16:27:11;100992.6;;;28.2;40.7
72124;BME280;59998;37.126;-8.538;2022-08-16T16:31:58;100990.7;;;28.1;41.2
72124;BME280;59998;37.126;-8.538;2022-08-16T16:36:46;100991.5;;;27.9;41.3
72124;BME280;59998;37.126;-8.538;2022-08-16T16:41:33;100988.0;;;28.1;40.7
72124;BME280;59998;37.126;-8.538;2022-08-16T16:46:24;100972.3;;;28.0;40.6
72124;BME280;59998;37.126;-8.538;2022-08-16T16:51:08;100968.6;;;28.2;41.1
72124;BME280;59998;37.126;-8.538;2022-08-16T16:55:54;100967.9;;;28.3;39.7
72124;BME280;59998;37.126;-8.538;2022-08-16T17:00:41;100979.8;;;28.3;39.1
72124;BME280;59998;37.126;-8.538;2022-08-16T17:05:27;100983.3;;;28.1;39.8
72124;BME280;59998;37.126;-8.538;2022-08-16T17:10:13;100998.6;;;28.2;39.3
72124;BME280;59998;37.126;-8.538;2022-08-16T17:15:00;100975.2;;;28.0;40.1
72124;BME280;59998;37.126;-8.538;2022-08-16T17:19:46;100998.1;;;27.7;40.6
72124;BME280;59998;37.126;-8.538;2022-08-16T17:24:32;100989.3;;;27.5;40.1
72124;BME280;59998;37.126;-8.538;2022-08-16T17:29:19;100993.5;;;27.6;39.3
72124;BME280;59998;37.126;-8.538;2022-08-16T17:34:05;100981.5;;;27.7;39.3
72124;BME280;59998;37.126;-8.538;2022-08-16T17:38:51;100993.0;;;27.7;39.3
72124;BME280;59998;37.126;-8.538;2022-08-16T17:43:40;100977.9;;;27.5;39.5
72124;BME280;59998;37.126;-8.538;2022-08-16T17:48:27;100978.1;;;27.6;39.2
72124;BME280;59998;37.126;-8.538;2022-08-16T17:53:15;100965.2;;;27.5;39.2
72124;BME280;59998;37.126;-8.538;2022-08-16T17:58:02;100987.0;;;27.8;39.1
72124;BME280;59998;37.126;-8.538;2022-08-16T18:02:48;100992.9;;;27.7;39.3
72124;BME280;59998;37.126;-8.538;2022-08-16T18:07:35;100993.5;;;27.9;39.3
72124;BME280;59998;37.126;-8.538;2022-08-16T18:12:21;100990.5;;;27.8;39.6
72124;BME280;59998;37.126;-8.538;2022-08-16T18:17:08;101009.2;;;27.7;40.1
72124;BME280;59998;37.126;-8.538;2022-08-16T18:21:56;100992.6;;;27.7;40.2
72124;BME280;59998;37.126;-8.538;2022-08-16T18:26:43;100999.6;;;27.8;40.1
72124;BME280;59998;37.126;-8.538;2022-08-16T18:31:30;101007.9;;;28.0;39.5
72124;BME280;59998;37.126;-8.538;2022-08-16T18:36:16;101013.2;;;27.6;40.3
72124;BME280;59998;37.126;-8.538;2022-08-16T18:41:03;101009.4;;;27.5;40.6
72124;BME280;59998;37.126;-8.538;2022-08-16T18:45:51;101018.5;;;27.2;41.4
72124;BME280;59998;37.126;-8.538;2022-08-16T18:50:38;101019.0;;;27.1;41.9
72124;BME280;59998;37.126;-8.538;2022-08-16T18:55:27;101019.4;;;26.8;43.0
72124;BME280;59998;37.126;-8.538;2022-08-16T19:00:14;101032.2;;;26.1;44.3
72124;BME280;59998;37.126;-8.538;2022-08-16T19:05:00;101044.8;;;26.0;44.7
72124;BME280;59998;37.126;-8.538;2022-08-16T19:09:47;101067.2;;;25.3;46.4
72124;BME280;59998;37.126;-8.538;2022-08-16T19:14:33;101076.7;;;25.0;47.0
72124;BME280;59998;37.126;-8.538;2022-08-16T19:19:19;101076.3;;;24.7;48.0
72124;BME280;59998;37.126;-8.538;2022-08-16T19:24:05;101082.3;;;24.4;48.8
72124;BME280;59998;37.126;-8.538;2022-08-16T19:28:52;101080.3;;;24.3;49.5
72124;BME280;59998;37.126;-8.538;2022-08-16T19:33:40;101086.1;;;24.1;50.4
72124;BME280;59998;37.126;-8.538;2022-08-16T19:38:26;101079.8;;;23.9;50.7
72124;BME280;59998;37.126;-8.538;2022-08-16T19:43:12;101095.1;;;23.7;51.3
72124;BME280;59998;37.126;-8.538;2022-08-16T19:47:58;101103.6;;;23.5;51.9
72124;BME280;59998;37.126;-8.538;2022-08-16T19:52:44;101107.1;;;23.5;52.0
72124;BME280;59998;37.126;-8.538;2022-08-16T19:57:32;101118.4;;;23.3;52.2
72124;BME280;59998;37.126;-8.538;2022-08-16T20:02:26;101120.3;;;23.2;52.6
72124;BME280;59998;37.126;-8.538;2022-08-16T20:07:13;97542.0;;;-1.0;51.7
72124;BME280;59998;37.126;-8.538;2022-08-16T20:12:04;101130.1;;;23.2;52.5
72124;BME280;59998;37.126;-8.538;2022-08-16T20:16:50;101135.0;;;23.0;53.5
72124;BME280;59998;37.126;-8.538;2022-08-16T20:21:36;101136.2;;;23.0;53.3
72124;BME280;59998;37.126;-8.538;2022-08-16T20:26:23;101135.1;;;23.0;53.6
72124;BME280;59998;37.126;-8.538;2022-08-16T20:31:09;101146.7;;;22.9;54.3
72124;BME280;59998;37.126;-8.538;2022-08-16T20:35:55;101142.6;;;22.7;54.7
72124;BME280;59998;37.126;-8.538;2022-08-16T20:40:42;101147.6;;;22.6;55.5
72124;BME280;59998;37.126;-8.538;2022-08-16T20:45:28;101148.3;;;22.5;55.8
72124;BME280;59998;37.126;-8.538;2022-08-16T20:50:15;101143.9;;;22.4;56.0
72124;BME280;59998;37.126;-8.538;2022-08-16T20:55:01;101167.8;;;22.4;56.1
72124;BME280;59998;37.126;-8.538;2022-08-16T20:59:47;101166.5;;;22.3;56.4
72124;BME280;59998;37.126;-8.538;2022-08-16T21:04:34;101176.0;;;22.4;56.1
72124;BME280;59998;37.126;-8.538;2022-08-16T21:09:22;101177.6;;;22.5;56.3
72124;BME280;59998;37.126;-8.538;2022-08-16T21:14:09;101174.0;;;22.4;55.9
72124;BME280;59998;37.126;-8.538;2022-08-16T21:18:55;101186.9;;;22.4;55.7
72124;BME280;59998;37.126;-8.538;2022-08-16T21:23:43;101188.0;;;22.3;56.2
72124;BME280;59998;37.126;-8.538;2022-08-16T21:28:30;101190.0;;;22.4;55.9
72124;BME280;59998;37.126;-8.538;2022-08-16T21:33:18;101200.2;;;22.4;55.8
72124;BME280;59998;37.126;-8.538;2022-08-16T21:38:05;101197.9;;;22.4;55.8
72124;BME280;59998;37.126;-8.538;2022-08-16T21:42:51;101199.2;;;22.5;55.3
72124;BME280;59998;37.126;-8.538;2022-08-16T21:47:37;101202.4;;;22.7;55.0
72124;BME280;59998;37.126;-8.538;2022-08-16T21:52:24;101195.4;;;22.6;55.0
72124;BME280;59998;37.126;-8.538;2022-08-16T21:57:10;101207.1;;;22.6;55.3
72124;BME280;59998;37.126;-8.538;2022-08-16T22:01:56;101199.7;;;22.6;55.1
72124;BME280;59998;37.126;-8.538;2022-08-16T22:06:43;101189.9;;;22.6;55.0
72124;BME280;59998;37.126;-8.538;2022-08-16T22:11:30;101192.6;;;22.6;55.4
72124;BME280;59998;37.126;-8.538;2022-08-16T22:16:16;101197.6;;;22.5;55.8
72124;BME280;59998;37.126;-8.538;2022-08-16T22:21:02;101202.2;;;22.5;56.2
72124;BME280;59998;37.126;-8.538;2022-08-16T22:25:50;101197.5;;;22.4;56.4
72124;BME280;59998;37.126;-8.538;2022-08-16T22:30:38;101201.0;;;22.4;56.5
72124;BME280;59998;37.126;-8.538;2022-08-16T22:35:24;101190.8;;;22.4;56.0
72124;BME280;59998;37.126;-8.538;2022-08-16T22:40:11;101200.6;;;22.4;56.0
72124;BME280;59998;37.126;-8.538;2022-08-16T22:45:02;101201.7;;;22.3;56.3
72124;BME280;59998;37.126;-8.538;2022-08-16T22:49:49;101191.5;;;22.3;55.6
72124;BME280;59998;37.126;-8.538;2022-08-16T22:54:35;101197.3;;;22.2;55.5
72124;BME280;59998;37.126;-8.538;2022-08-16T22:59:22;101187.6;;;22.3;54.9
72124;BME280;59998;37.126;-8.538;2022-08-16T23:04:08;101193.4;;;22.2;54.3
72124;BME280;59998;37.126;-8.538;2022-08-16T23:08:54;101186.3;;;22.2;53.1
72124;BME280;59998;37.126;-8.538;2022-08-16T23:13:41;101186.4;;;22.2;53.1
72124;BME280;59998;37.126;-8.538;2022-08-16T23:18:29;101189.9;;;22.3;52.4
72124;BME280;59998;37.126;-8.538;2022-08-16T23:23:16;101200.6;;;22.4;51.5
72124;BME280;59998;37.126;-8.538;2022-08-16T23:28:04;101199.9;;;22.5;52.3
72124;BME280;59998;37.126;-8.538;2022-08-16T23:32:53;101203.8;;;22.5;51.7
72124;BME280;59998;37.126;-8.538;2022-08-16T23:37:40;101200.4;;;22.5;51.1
72124;BME280;59998;37.126;-8.538;2022-08-16T23:42:27;101201.1;;;22.5;51.0
72124;BME280;59998;37.126;-8.538;2022-08-16T23:47:13;101195.6;;;22.5;50.7
72124;BME280;59998;37.126;-8.538;2022-08-16T23:52:07;101205.0;;;22.5;50.6
72124;BME280;59998;37.126;-8.538;2022-08-16T23:56:53;101194.0;;;22.5;51.0
